Terminal Aerodrome Forecast
Issued by NWS Charleston, WV

Current Version | Previous Version | Text Only | Print | Product List | Glossary Off
Versions: 1 2 3 4 5 6 7 8 9 10 11 12 13 14 15 16 17 18 19 20 21 22 23

000
FTUS41 KRLX 212337
TAFHTS
TAF
KHTS 212337Z 2200/2224 32006KT P6SM BKN025
     FM220100 31005KT P6SM BKN035
     FM220300 29004KT 6SM BR SCT035
     FM220600 25003KT 3SM BR FEW030
     FM221200 26008KT 5SM BR FEW035
     FM221300 30008KT P6SM SCT040=

USA.gov is the U.S. government's official web portal to all federal, state and local government web resources and services.